createdAt,value
2023-03-21T06:42:08.831Z,100172.91
2023-03-21T06:44:54.325Z,100172.91
2023-03-21T06:47:40.245Z,100172.44
2023-03-21T06:50:25.706Z,100161.31
2023-03-21T06:53:11.110Z,100160.00
2023-03-21T06:55:56.512Z,100166.53
2023-03-21T06:58:41.694Z,100163.66
2023-03-21T07:01:27.858Z,100185.56
2023-03-21T07:04:13.303Z,100175.41
2023-03-21T07:06:59.505Z,100186.13
2023-03-21T07:09:44.933Z,100192.25
2023-03-21T07:12:34.079Z,100188.63
2023-03-21T07:15:24.165Z,100193.37
2023-03-21T07:18:10.420Z,100180.28
2023-03-21T07:20:55.714Z,100196.72
2023-03-21T07:23:41.493Z,100183.63
2023-03-21T07:26:26.968Z,100188.59
2023-03-21T07:29:12.294Z,100206.44
2023-03-21T07:31:57.572Z,100205.28
2023-03-21T07:34:42.968Z,100207.75
2023-03-21T07:37:29.583Z,100199.16
2023-03-21T07:40:15.055Z,100207.00
2023-03-21T07:43:00.209Z,100191.84
2023-03-21T07:45:45.827Z,100200.63
2023-03-21T07:48:31.656Z,100205.09
2023-03-21T07:51:17.389Z,100210.88
2023-03-21T07:54:02.798Z,100202.59
2023-03-21T07:56:48.553Z,100202.75
2023-03-21T07:59:33.780Z,100200.25
2023-03-21T08:02:19.576Z,100205.63
2023-03-21T08:05:05.401Z,100199.31
2023-03-21T08:07:51.374Z,100200.97
2023-03-21T08:10:37.303Z,100187.13
2023-03-21T08:13:23.078Z,100200.97
2023-03-21T08:16:09.035Z,100196.37
2023-03-21T08:18:54.836Z,100197.06
2023-03-21T08:21:40.833Z,100178.72
2023-03-21T08:24:27.180Z,100177.25
2023-03-21T08:27:13.195Z,100197.97
2023-03-21T08:30:00.168Z,100203.03
2023-03-21T08:32:45.650Z,100202.06
2023-03-21T08:35:31.673Z,100204.00
2023-03-21T08:38:17.903Z,100207.88
2023-03-21T08:41:03.526Z,100210.44
2023-03-21T08:43:49.463Z,100205.12
2023-03-21T08:46:34.991Z,100207.59
2023-03-21T08:49:20.143Z,100208.00
2023-03-21T08:52:06.417Z,100210.19
2023-03-21T08:54:51.824Z,100198.56
2023-03-21T08:57:37.616Z,100202.22
2023-03-21T09:00:24.382Z,100206.03
2023-03-21T09:03:11.767Z,100211.28
2023-03-21T09:05:59.115Z,100207.19
2023-03-21T09:08:46.375Z,100211.00
2023-03-21T09:11:31.661Z,100204.25
2023-03-21T09:14:16.884Z,100212.25
2023-03-21T09:17:02.507Z,100207.53
2023-03-21T09:19:50.835Z,100207.94
2023-03-21T09:22:37.024Z,100202.87
2023-03-21T09:25:23.759Z,100197.47
2023-03-21T09:28:09.827Z,100185.06
2023-03-21T09:30:55.434Z,100177.50
2023-03-21T09:33:43.298Z,100186.13
2023-03-21T09:36:28.675Z,100181.88
2023-03-21T09:39:14.545Z,100175.63
2023-03-21T09:42:17.707Z,100177.75
2023-03-21T09:45:27.370Z,100180.09
2023-03-21T09:48:22.700Z,100179.00
2023-03-21T09:51:11.069Z,100179.69
2023-03-21T09:53:57.806Z,100162.25
2023-03-21T09:56:45.500Z,100161.72
2023-03-21T09:59:38.301Z,100160.44
2023-03-21T10:02:49.842Z,100158.22
2023-03-21T10:05:40.346Z,100167.16
2023-03-21T10:08:29.006Z,100156.69
2023-03-21T10:11:29.215Z,100170.31
2023-03-21T10:14:24.334Z,100169.91
2023-03-21T10:17:32.336Z,100159.37
2023-03-21T10:20:23.409Z,100157.44
2023-03-21T10:23:13.788Z,100164.44
2023-03-21T10:26:02.241Z,100153.75
2023-03-21T10:28:53.230Z,100161.19
2023-03-21T10:31:40.156Z,100160.84
2023-03-21T10:34:32.301Z,100149.25
2023-03-21T10:37:18.416Z,100164.59
2023-03-21T10:40:06.996Z,100164.19
2023-03-21T10:42:55.996Z,100161.25
2023-03-21T10:45:42.578Z,100157.91
2023-03-21T10:48:36.220Z,100155.00
2023-03-21T10:51:36.500Z,100148.38
2023-03-21T10:54:29.373Z,100144.56
2023-03-21T10:57:26.723Z,100140.75
2023-03-21T11:00:20.932Z,100152.56
2023-03-21T11:03:06.993Z,100152.22
2023-03-21T11:06:05.913Z,100154.72
2023-03-21T11:08:54.964Z,100154.84
2023-03-21T11:11:44.434Z,100143.50
2023-03-21T11:14:34.384Z,100139.31
2023-03-21T11:17:23.498Z,100142.16
2023-03-21T11:20:12.694Z,100137.16
2023-03-21T11:22:58.407Z,100137.25
2023-03-21T11:25:44.353Z,100118.28
2023-03-21T11:28:37.430Z,100119.78
2023-03-21T11:31:25.058Z,100119.78
2023-03-21T11:34:25.231Z,100119.75
2023-03-21T11:37:18.591Z,100115.50
2023-03-21T11:40:24.160Z,100101.66
2023-03-21T11:43:19.042Z,100094.34
2023-03-21T11:46:09.021Z,100097.63
2023-03-21T11:48:55.788Z,100096.81
2023-03-21T11:52:11.563Z,100084.22
2023-03-21T11:55:32.406Z,100093.38
2023-03-21T11:58:37.539Z,100090.22
2023-03-21T12:01:42.467Z,100085.91
2023-03-21T12:04:42.488Z,100072.47
2023-03-21T12:07:40.499Z,100058.78
2023-03-21T12:10:40.150Z,100044.19
2023-03-21T12:13:50.165Z,100056.31
2023-03-21T12:16:57.794Z,100040.22
2023-03-21T12:20:31.629Z,100039.75
2023-03-21T12:23:24.272Z,100036.56
2023-03-21T12:26:18.644Z,100030.94
2023-03-21T12:29:40.999Z,100034.59
2023-03-21T12:32:33.832Z,100035.31
2023-03-21T12:35:47.539Z,100031.72
2023-03-21T12:38:59.509Z,100038.28
2023-03-21T12:41:56.857Z,100033.44
2023-03-21T12:44:47.365Z,100008.31
2023-03-21T12:47:34.980Z,100009.84
2023-03-21T12:50:24.886Z,100003.28
2023-03-21T12:53:36.395Z,100006.87
2023-03-21T12:56:30.613Z,99999.00
2023-03-21T12:59:31.605Z,100006.72
2023-03-21T13:02:35.320Z,100013.66
2023-03-21T13:05:28.532Z,100003.19
2023-03-21T13:08:47.720Z,99997.47
2023-03-21T13:11:34.089Z,99998.63
2023-03-21T13:14:25.518Z,99997.38
2023-03-21T13:17:20.001Z,99992.69
2023-03-21T13:20:31.220Z,99989.84
2023-03-21T13:23:19.111Z,99976.91
2023-03-21T13:26:09.161Z,99982.03
2023-03-21T13:28:54.507Z,99963.59
2023-03-21T13:31:51.773Z,99973.59
2023-03-21T13:34:50.007Z,99976.88
2023-03-21T13:37:39.781Z,99970.31
